Airport Name : Fulton Co Arpt Brown Fld

Other Name : Fulton Co

ICAO : KFTY

IATA : FTY

FAA : FTY

Latitude : 33.779139

Longitude : -84.521361

Country : United States

Local Date and Time : 07 Dec 2022 15:16

 

TAF (Terminal Aerodrome Forecast)

KFTY 032344Z 0400/0424 23005KT P6SM BKN015 FM040300 33004KT P6SM SCT007 BKN012 FM040900 00000KT P6SM SCT200

 

METAR (METeorological Aerodrome Report)

KFTY 032353Z 00000KT 10SM SCT012 BKN032 OVC048 16/16 A3029 RMK AO2 SLP255 60000 T01610156 10161 20150 53007

KFTY 032343Z 00000KT 10SM SCT012 BKN033 OVC048 16/16 A3029 RMK AO2 T01610156

KFTY 032253Z 00000KT 10SM OVC014 16/16 A3028 RMK AO2 SLP251 T01610156

KFTY 032153Z 00000KT 10SM FEW011 OVC015 16/16 A3028 RMK AO2 SLP250 T01610156

KFTY 032053Z 23003KT 10SM OVC010 16/16 A3027 RMK AO2 CIG 008V013 SLP248 60000 T01610156 55010

To Charter a Jet Click here.